createdAt,value
2022-10-07T00:01:24.869Z,100519.44
2022-10-07T00:06:28.085Z,100520.45
2022-10-07T00:11:31.873Z,100519.71
2022-10-07T00:16:38.297Z,100517.17
2022-10-07T00:21:41.428Z,100516.84
2022-10-07T00:26:44.480Z,100516.86
2022-10-07T00:31:47.440Z,100515.21
2022-10-07T00:36:51.049Z,100513.43
2022-10-07T00:41:53.979Z,100509.18
2022-10-07T00:46:59.457Z,100502.19
2022-10-07T00:52:02.634Z,100497.70
2022-10-07T00:57:05.767Z,100491.27
2022-10-07T01:02:08.960Z,100489.66
2022-10-07T01:13:37.192Z,100484.40
2022-10-07T01:18:53.895Z,100485.86
2022-10-07T01:24:03.120Z,100477.65
2022-10-07T01:29:12.314Z,100476.30
2022-10-07T01:34:17.329Z,100470.16
2022-10-07T01:39:25.815Z,100466.96
2022-10-07T01:44:30.716Z,100466.11
2022-10-07T01:49:34.542Z,100461.86
2022-10-07T01:55:03.575Z,100458.40
2022-10-07T02:00:12.121Z,100454.99
2022-10-07T02:06:06.386Z,100454.30
2022-10-07T02:11:12.246Z,100453.79
2022-10-07T02:16:41.866Z,100455.20
2022-10-07T02:21:49.273Z,100454.45
2022-10-07T02:26:54.357Z,100453.35
2022-10-07T02:32:02.674Z,100455.55
2022-10-07T02:37:24.128Z,100449.83
2022-10-07T02:42:33.768Z,100447.59
2022-10-07T02:47:43.184Z,100448.02
2022-10-07T02:52:46.962Z,100447.57
2022-10-07T02:57:55.429Z,100443.70
2022-10-07T03:03:05.313Z,100437.73
2022-10-07T03:08:23.416Z,100432.80
2022-10-07T03:13:26.810Z,100432.23
2022-10-07T03:18:34.609Z,100430.04
2022-10-07T03:24:05.125Z,100431.98
2022-10-07T03:29:14.696Z,100434.91
2022-10-07T03:34:19.600Z,100437.02
2022-10-07T03:39:23.457Z,100430.52
2022-10-07T03:44:26.999Z,100429.80
2022-10-07T03:49:31.009Z,100428.37
2022-10-07T03:54:34.375Z,100419.50
2022-10-07T03:59:37.376Z,100416.82
2022-10-07T04:04:41.261Z,100410.64
2022-10-07T04:09:44.240Z,100403.14
2022-10-07T04:14:47.230Z,100407.24
2022-10-07T04:19:50.265Z,100400.52
2022-10-07T04:25:12.293Z,100399.65
2022-10-07T04:30:15.335Z,100393.21
2022-10-07T04:35:22.416Z,100390.40
2022-10-07T04:40:27.575Z,100389.70
2022-10-07T04:45:35.419Z,100385.05
2022-10-07T04:50:39.197Z,100383.84
2022-10-07T04:55:46.696Z,100383.35
2022-10-07T05:00:52.111Z,100384.55
2022-10-07T05:06:05.546Z,100386.76
2022-10-07T05:11:09.221Z,100386.06
2022-10-07T05:16:17.808Z,100385.02
2022-10-07T05:21:21.203Z,100387.70
2022-10-07T05:26:24.941Z,100385.06
2022-10-07T05:31:32.895Z,100382.87
2022-10-07T05:36:38.872Z,100378.92
2022-10-07T05:41:45.603Z,100375.93
2022-10-07T05:46:49.875Z,100378.33
2022-10-07T05:51:53.205Z,100374.50
2022-10-07T05:56:56.412Z,100377.34
2022-10-07T06:02:00.982Z,100379.61
2022-10-07T06:07:05.503Z,100383.83
2022-10-07T06:12:28.493Z,100387.73
2022-10-07T06:17:32.082Z,100390.27
2022-10-07T06:22:36.236Z,100388.60
2022-10-07T06:27:39.402Z,100383.61
2022-10-07T06:32:42.573Z,100383.66
2022-10-07T06:37:46.482Z,100381.27
2022-10-07T06:42:49.801Z,100377.44
2022-10-07T06:47:53.327Z,100373.58
2022-10-07T06:52:57.463Z,100373.75
2022-10-07T06:58:05.119Z,100367.05
2022-10-07T07:03:12.360Z,100362.66
2022-10-07T07:08:18.644Z,100355.02
2022-10-07T07:13:22.494Z,100346.77
2022-10-07T07:18:26.074Z,100348.02
2022-10-07T07:23:29.186Z,100347.15
2022-10-07T07:28:33.532Z,100345.83
2022-10-07T07:33:40.464Z,100341.79
2022-10-07T07:38:52.371Z,100340.33
2022-10-07T07:43:58.354Z,100333.09
2022-10-07T07:49:02.963Z,100333.05
2022-10-07T07:54:09.000Z,100330.13
2022-10-07T07:59:12.328Z,100320.69
2022-10-07T08:04:16.226Z,100314.92
2022-10-07T08:09:19.116Z,100312.42
2022-10-07T08:14:23.646Z,100313.09
2022-10-07T08:19:30.497Z,100306.56
2022-10-07T08:24:36.256Z,100299.98
2022-10-07T08:29:40.079Z,100294.10
2022-10-07T08:34:43.080Z,100289.56
2022-10-07T08:39:45.985Z,100285.03
2022-10-07T08:44:50.414Z,100275.17
2022-10-07T08:50:07.738Z,100269.23
2022-10-07T08:55:20.889Z,100265.16
2022-10-07T09:00:25.050Z,100263.46
2022-10-07T09:05:34.216Z,100258.95
2022-10-07T09:10:44.311Z,100255.28
2022-10-07T09:15:58.738Z,100244.25
2022-10-07T09:21:05.048Z,100242.01
2022-10-07T09:26:13.070Z,100234.25
2022-10-07T09:31:17.099Z,100224.14
2022-10-07T09:36:20.364Z,100221.58
2022-10-07T09:41:32.986Z,100212.48
2022-10-07T09:46:54.104Z,100210.50
2022-10-07T09:52:23.406Z,100205.64
2022-10-07T09:57:31.547Z,100205.85
2022-10-07T10:02:35.081Z,100198.31
2022-10-07T10:07:39.149Z,100195.95
2022-10-07T10:12:53.568Z,100191.52
2022-10-07T10:17:57.502Z,100183.75
2022-10-07T10:23:02.954Z,100171.96
2022-10-07T10:28:21.025Z,100163.24
2022-10-07T10:33:36.634Z,100149.81
2022-10-07T10:38:47.227Z,100141.59
2022-10-07T10:43:55.809Z,100137.80
2022-10-07T10:49:37.866Z,100127.61
2022-10-07T10:54:59.001Z,100113.58
2022-10-07T11:00:05.414Z,100100.61
2022-10-07T11:05:22.108Z,100099.73
2022-10-07T11:10:36.628Z,100089.55
2022-10-07T11:15:45.226Z,100083.20
2022-10-07T11:20:50.424Z,100072.97
2022-10-07T11:26:00.262Z,100055.64
2022-10-07T11:31:11.237Z,100045.54
2022-10-07T11:36:22.027Z,100036.15
2022-10-07T11:41:32.134Z,100026.33
2022-10-07T11:46:40.076Z,100014.98
2022-10-07T11:51:50.621Z,100011.64
2022-10-07T11:56:57.755Z,100008.45
2022-10-07T12:02:01.457Z,100000.05
2022-10-07T12:07:35.230Z,99993.15
2022-10-07T12:12:43.420Z,99983.55
2022-10-07T12:17:56.726Z,99978.07
2022-10-07T12:23:20.823Z,99974.11
2022-10-07T12:28:42.078Z,99969.77
2022-10-07T12:33:45.169Z,99959.77
2022-10-07T12:38:57.528Z,99955.82
2022-10-07T12:44:27.970Z,99947.16
2022-10-07T12:49:38.749Z,99938.52
2022-10-07T12:54:51.015Z,99930.29
2022-10-07T13:00:13.597Z,99925.54
2022-10-07T13:05:54.345Z,99917.24
2022-10-07T13:11:09.184Z,99906.54
2022-10-07T13:16:21.621Z,99905.86
2022-10-07T13:21:53.768Z,99893.09
2022-10-07T13:26:57.652Z,99876.37
2022-10-07T13:32:15.458Z,99869.27
2022-10-07T13:37:31.778Z,99858.36
2022-10-07T13:42:35.374Z,99849.48
2022-10-07T13:47:38.556Z,99842.95
2022-10-07T13:52:45.218Z,99833.07
2022-10-07T13:57:48.663Z,99824.50
2022-10-07T14:02:52.454Z,99815.38
2022-10-07T14:08:00.783Z,99804.51
2022-10-07T14:13:09.289Z,99798.77
2022-10-07T14:18:15.403Z,99798.48
2022-10-07T14:23:22.309Z,99792.66
2022-10-07T14:28:25.371Z,99784.75
2022-10-07T14:34:20.542Z,99778.45
2022-10-07T14:39:32.474Z,99775.23
2022-10-07T14:44:36.132Z,99769.09
2022-10-07T14:49:42.289Z,99761.75
2022-10-07T14:54:45.901Z,99757.67
2022-10-07T14:59:50.153Z,99751.38
2022-10-07T15:04:53.450Z,99748.14
2022-10-07T15:09:56.806Z,99744.84
2022-10-07T15:14:59.902Z,99742.16
2022-10-07T15:20:03.790Z,99733.77
2022-10-07T15:25:08.463Z,99734.52
2022-10-07T15:30:12.238Z,99728.11
2022-10-07T15:35:15.307Z,99725.14
2022-10-07T15:40:18.337Z,99721.55
2022-10-07T15:45:21.305Z,99719.63
2022-10-07T15:50:24.125Z,99714.95
2022-10-07T15:55:27.033Z,99712.45
2022-10-07T16:00:30.014Z,99710.02
2022-10-07T16:05:35.330Z,99709.29
2022-10-07T16:10:38.253Z,99703.23
2022-10-07T16:15:42.474Z,99699.30
2022-10-07T16:20:45.617Z,99698.04
2022-10-07T16:25:48.550Z,99694.73
2022-10-07T16:30:52.326Z,99685.61
2022-10-07T16:35:55.429Z,99684.95
2022-10-07T16:40:58.396Z,99682.38
2022-10-07T16:46:04.585Z,99681.39
2022-10-07T16:51:18.430Z,99672.99
2022-10-07T16:56:22.807Z,99672.71
2022-10-07T17:01:27.663Z,99671.97
2022-10-07T17:06:31.779Z,99667.33
2022-10-07T17:11:36.388Z,99664.80
2022-10-07T17:16:43.004Z,99661.65
2022-10-07T17:21:47.958Z,99660.85
2022-10-07T17:26:52.990Z,99660.44
2022-10-07T17:31:58.264Z,99662.12
2022-10-07T17:37:01.278Z,99653.98
2022-10-07T17:42:04.787Z,99652.80
2022-10-07T17:47:08.060Z,99648.55
2022-10-07T17:52:13.417Z,99645.42
2022-10-07T17:57:16.445Z,99640.67
2022-10-07T18:02:19.866Z,99628.19
2022-10-07T18:07:23.112Z,99622.02
2022-10-07T18:12:44.564Z,99616.87
2022-10-07T18:17:51.023Z,99616.96
2022-10-07T18:22:57.735Z,99610.65
2022-10-07T18:28:02.749Z,99606.61
2022-10-07T18:33:06.189Z,99605.45
2022-10-07T18:38:09.125Z,99602.33
2022-10-07T18:43:12.184Z,99601.45
2022-10-07T18:48:15.738Z,99594.79
2022-10-07T18:53:18.661Z,99597.66
2022-10-07T18:58:21.653Z,99593.02
2022-10-07T19:03:24.513Z,99593.40
2022-10-07T19:08:27.416Z,99593.70
2022-10-07T19:13:48.483Z,99589.30
2022-10-07T19:18:54.194Z,99594.48
2022-10-07T19:24:01.230Z,99592.54
2022-10-07T19:29:06.642Z,99591.04
2022-10-07T19:34:21.263Z,99587.93
2022-10-07T19:39:24.142Z,99588.60
2022-10-07T19:44:27.419Z,99589.63
2022-10-07T19:49:30.382Z,99587.94
2022-10-07T19:54:35.987Z,99587.22
2022-10-07T19:59:38.753Z,99587.91
2022-10-07T20:04:42.051Z,99586.45
2022-10-07T20:09:46.895Z,99581.49
2022-10-07T20:14:50.042Z,99581.02
2022-10-07T20:19:53.827Z,99580.56
2022-10-07T20:24:56.768Z,99581.54
2022-10-07T20:30:02.559Z,99578.39
2022-10-07T20:35:09.967Z,99576.77
2022-10-07T20:40:31.631Z,99577.94
2022-10-07T20:45:55.361Z,99569.15
2022-10-07T20:51:07.292Z,99569.02
2022-10-07T20:56:10.260Z,99568.88
2022-10-07T21:01:21.746Z,99564.45
2022-10-07T21:06:33.797Z,99558.02
2022-10-07T21:11:37.641Z,99559.59
2022-10-07T21:16:43.178Z,99559.46
2022-10-07T21:21:46.128Z,99558.98
2022-10-07T21:26:49.072Z,99556.06
2022-10-07T21:31:53.306Z,99555.15
2022-10-07T21:36:57.328Z,99554.61
2022-10-07T21:42:00.269Z,99552.52
2022-10-07T21:47:05.188Z,99550.72
2022-10-07T21:52:08.617Z,99547.69
2022-10-07T21:57:11.484Z,99545.34
2022-10-07T22:02:14.767Z,99541.40
2022-10-07T22:07:36.127Z,99538.22
2022-10-07T22:12:39.197Z,99539.40
2022-10-07T22:17:42.162Z,99538.49
2022-10-07T22:22:45.257Z,99531.23
2022-10-07T22:27:51.628Z,99523.09
2022-10-07T22:32:54.477Z,99514.80
2022-10-07T22:37:58.799Z,99518.81
2022-10-07T22:43:01.798Z,99513.67
2022-10-07T22:48:05.022Z,99512.97
2022-10-07T22:53:08.187Z,99509.54
2022-10-07T22:58:11.473Z,99509.05
2022-10-07T23:03:14.323Z,99507.54
2022-10-07T23:08:17.310Z,99503.98
2022-10-07T23:13:21.131Z,99500.77
2022-10-07T23:18:24.041Z,99498.21
2022-10-07T23:23:27.275Z,99497.74
2022-10-07T23:28:30.484Z,99494.82
2022-10-07T23:33:37.349Z,99488.16
2022-10-07T23:38:47.370Z,99485.88
2022-10-07T23:43:52.355Z,99485.15
2022-10-07T23:48:56.352Z,99480.02
2022-10-07T23:54:01.087Z,99475.18
2022-10-07T23:59:04.146Z,99470.46
